createdAt,value
2024-02-15T00:01:22.902Z,99602.50
2024-02-15T00:03:49.658Z,99612.03
2024-02-15T00:06:16.470Z,99600.69
2024-02-15T00:08:43.288Z,99592.19
2024-02-15T00:11:10.017Z,99596.09
2024-02-15T00:13:36.742Z,99592.75
2024-02-15T00:16:03.797Z,99594.34
2024-02-15T00:18:32.674Z,99586.59
2024-02-15T00:20:59.512Z,99585.94
2024-02-15T00:23:26.293Z,99585.81
2024-02-15T00:25:52.989Z,99601.25
2024-02-15T00:28:19.679Z,99597.56
2024-02-15T00:30:46.386Z,99582.22
2024-02-15T00:33:13.297Z,99582.56
2024-02-15T00:35:41.864Z,99605.25
2024-02-15T00:38:09.236Z,99603.81
2024-02-15T00:40:36.128Z,99619.06
2024-02-15T00:43:02.985Z,99620.41
2024-02-15T00:45:29.703Z,99624.16
2024-02-15T00:47:56.509Z,99628.09
2024-02-15T00:50:23.237Z,99622.66
2024-02-15T00:52:51.409Z,99619.53
2024-02-15T00:55:18.199Z,99628.94
2024-02-15T00:57:44.896Z,99630.94
2024-02-15T01:00:12.413Z,99621.34
2024-02-15T01:02:39.263Z,99625.91
2024-02-15T01:05:06.297Z,99630.59
2024-02-15T01:07:33.014Z,99629.88
2024-02-15T01:10:01.117Z,99625.41
2024-02-15T01:12:27.899Z,99632.78
2024-02-15T01:14:54.734Z,99627.47
2024-02-15T01:17:21.557Z,99633.41
2024-02-15T01:19:48.300Z,99642.34
2024-02-15T01:22:15.056Z,99649.31
2024-02-15T01:24:41.750Z,99641.97
2024-02-15T01:27:09.886Z,99642.50
2024-02-15T01:29:36.908Z,99644.50
2024-02-15T01:32:04.386Z,99631.66
2024-02-15T01:34:31.202Z,99626.53
2024-02-15T01:36:57.951Z,99632.53
2024-02-15T01:39:24.676Z,99637.91
2024-02-15T01:41:51.434Z,99638.81
2024-02-15T01:44:19.771Z,99628.13
2024-02-15T01:46:46.945Z,99619.22
2024-02-15T01:49:13.910Z,99622.47
2024-02-15T01:51:41.387Z,99618.88
2024-02-15T01:54:08.246Z,99623.97
2024-02-15T01:56:35.078Z,99629.53
2024-02-15T01:59:02.685Z,99628.50
2024-02-15T02:01:31.911Z,99625.22
2024-02-15T02:03:59.414Z,99621.13
2024-02-15T02:06:26.582Z,99609.69
2024-02-15T02:08:53.736Z,99605.19
2024-02-15T02:11:21.136Z,99595.44
2024-02-15T02:13:47.828Z,99594.94
2024-02-15T02:16:27.076Z,99591.50
2024-02-15T02:18:56.129Z,99579.75
2024-02-15T02:21:23.293Z,99586.88
2024-02-15T02:23:54.306Z,99582.38
2024-02-15T02:26:23.188Z,99589.25
2024-02-15T02:28:50.416Z,99585.59
2024-02-15T02:31:17.290Z,99582.56
2024-02-15T02:33:49.275Z,99578.66
2024-02-15T02:36:16.094Z,99565.22
2024-02-15T02:38:42.861Z,99566.81
2024-02-15T02:41:09.624Z,99568.81
2024-02-15T02:43:37.669Z,99566.78
2024-02-15T02:46:04.714Z,99559.28
2024-02-15T02:48:31.567Z,99562.47
2024-02-15T02:50:58.592Z,99558.63
2024-02-15T02:53:25.477Z,99559.72
2024-02-15T02:55:52.686Z,99554.00
2024-02-15T02:58:19.329Z,99543.56
2024-02-15T03:00:47.445Z,99539.09
2024-02-15T03:03:14.227Z,99543.31
2024-02-15T03:05:41.005Z,99546.31
2024-02-15T03:08:09.189Z,99542.59
2024-02-15T03:10:36.051Z,99546.91
2024-02-15T03:13:02.735Z,99538.88
2024-02-15T03:15:29.461Z,99543.50
2024-02-15T03:17:57.587Z,99536.00
2024-02-15T03:20:24.406Z,99542.94
2024-02-15T03:22:54.831Z,99538.00
2024-02-15T03:25:21.534Z,99532.47
2024-02-15T03:27:48.190Z,99527.38
2024-02-15T03:30:15.224Z,99529.25
2024-02-15T03:32:42.062Z,99529.06
2024-02-15T03:35:10.272Z,99530.50
2024-02-15T03:37:36.934Z,99528.25
2024-02-15T03:40:04.446Z,99526.22
2024-02-15T03:42:31.785Z,99533.19
2024-02-15T03:44:58.474Z,99523.91
2024-02-15T03:47:25.162Z,99527.06
2024-02-15T03:49:51.822Z,99518.59
2024-02-15T03:52:19.849Z,99500.13
2024-02-15T03:54:46.550Z,99499.16
2024-02-15T03:57:13.222Z,99500.16
2024-02-15T03:59:39.933Z,99501.91
2024-02-15T04:02:06.646Z,99497.72
2024-02-15T04:04:33.355Z,99501.97
2024-02-15T04:07:00.270Z,99498.97
2024-02-15T04:09:28.460Z,99498.13
2024-02-15T04:11:55.283Z,99501.66
2024-02-15T04:14:22.041Z,99500.13
2024-02-15T04:16:48.716Z,99493.56
2024-02-15T04:19:16.490Z,99488.53
2024-02-15T04:21:43.201Z,99492.38
2024-02-15T04:24:09.892Z,99486.28
2024-02-15T04:26:37.995Z,99486.72
2024-02-15T04:29:08.511Z,99485.97
2024-02-15T04:31:36.349Z,99483.38
2024-02-15T04:34:03.155Z,99489.22
2024-02-15T04:36:30.008Z,99482.56
2024-02-15T04:38:56.751Z,99477.59
2024-02-15T04:41:23.451Z,99466.00
2024-02-15T04:43:52.001Z,99466.47
2024-02-15T04:46:18.770Z,99462.16
2024-02-15T04:48:45.590Z,99459.19
2024-02-15T04:51:12.875Z,99459.28
2024-02-15T04:53:39.716Z,99456.84
2024-02-15T04:56:06.860Z,99451.16
2024-02-15T04:58:33.563Z,99452.75
2024-02-15T05:01:01.652Z,99443.59
2024-02-15T05:03:28.344Z,99438.72
2024-02-15T05:05:55.096Z,99429.69
2024-02-15T05:08:21.841Z,99429.50
2024-02-15T05:10:48.577Z,99438.97
2024-02-15T05:13:15.361Z,99435.44
2024-02-15T05:15:42.215Z,99440.66
2024-02-15T05:18:10.504Z,99438.47
2024-02-15T05:20:37.241Z,99436.84
2024-02-15T05:23:04.335Z,99430.44
2024-02-15T05:25:31.037Z,99439.22
2024-02-15T05:27:58.194Z,99440.72
2024-02-15T05:30:26.091Z,99431.13
2024-02-15T05:32:53.327Z,99443.38
2024-02-15T05:35:21.469Z,99427.56
2024-02-15T05:37:48.142Z,99434.50
2024-02-15T05:40:15.106Z,99437.94
2024-02-15T05:42:42.942Z,99432.75
2024-02-15T05:45:30.108Z,99424.88
2024-02-15T05:47:57.037Z,99423.81
2024-02-15T05:50:25.733Z,99424.47
2024-02-15T05:52:52.714Z,99437.47
2024-02-15T05:55:19.407Z,99436.59
2024-02-15T05:57:46.190Z,99436.91
2024-02-15T06:00:21.570Z,99427.72
2024-02-15T06:02:49.933Z,99426.47
2024-02-15T06:05:16.690Z,99415.59
2024-02-15T06:07:45.046Z,99407.38
2024-02-15T06:10:11.966Z,99406.63
2024-02-15T06:12:38.661Z,99409.84
2024-02-15T06:15:05.822Z,99406.31
2024-02-15T06:17:32.622Z,99399.66
2024-02-15T06:19:59.398Z,99393.59
2024-02-15T06:22:26.084Z,99389.56
2024-02-15T06:24:54.123Z,99389.09
2024-02-15T06:27:20.808Z,99387.75
2024-02-15T06:29:47.624Z,99382.03
2024-02-15T06:32:14.379Z,99373.50
2024-02-15T06:34:43.309Z,99370.34
2024-02-15T06:37:10.041Z,99370.25
2024-02-15T06:39:36.720Z,99376.38
2024-02-15T06:42:05.436Z,99363.38
2024-02-15T06:44:32.283Z,99364.75
2024-02-15T06:46:59.046Z,99358.59
2024-02-15T06:49:25.896Z,99356.53
2024-02-15T06:51:52.715Z,99372.75
2024-02-15T06:54:19.548Z,99363.81
2024-02-15T06:56:46.674Z,99369.31
2024-02-15T06:59:15.403Z,99379.78
2024-02-15T07:01:42.247Z,99371.50
2024-02-15T07:04:09.125Z,99377.34
2024-02-15T07:06:37.417Z,99361.59
2024-02-15T07:09:04.479Z,99379.59
2024-02-15T07:11:32.123Z,99386.06
2024-02-15T07:13:58.994Z,99381.19
2024-02-15T07:16:27.184Z,99385.03
2024-02-15T07:18:54.246Z,99384.63
2024-02-15T07:21:21.522Z,99384.84
2024-02-15T07:23:48.454Z,99388.59
2024-02-15T07:26:15.271Z,99386.13
2024-02-15T07:28:42.115Z,99383.75
2024-02-15T07:31:08.877Z,99369.97
2024-02-15T07:33:37.089Z,99374.00
2024-02-15T07:36:04.408Z,99383.88
2024-02-15T07:38:31.149Z,99378.44
2024-02-15T07:40:57.821Z,99368.44
2024-02-15T07:43:24.492Z,99381.88
2024-02-15T07:45:51.189Z,99383.97
2024-02-15T07:48:18.100Z,99390.13
2024-02-15T07:50:46.513Z,99380.72
2024-02-15T07:53:13.517Z,99389.88
2024-02-15T07:55:40.301Z,99390.13
2024-02-15T07:58:06.982Z,99395.19
2024-02-15T08:00:33.771Z,99391.06
2024-02-15T08:03:00.580Z,99374.78
2024-02-15T08:05:27.387Z,99390.94
2024-02-15T08:07:55.576Z,99375.50
2024-02-15T08:10:22.230Z,99368.66
2024-02-15T08:12:48.928Z,99375.88
2024-02-15T08:15:15.959Z,99372.56
2024-02-15T08:17:44.761Z,99376.38
2024-02-15T08:20:12.410Z,99369.28
2024-02-15T08:22:39.443Z,99367.91
2024-02-15T08:25:10.441Z,99357.59
2024-02-15T08:27:38.445Z,99354.50
2024-02-15T08:30:06.500Z,99350.19
2024-02-15T08:32:33.337Z,99365.84
2024-02-15T08:35:00.389Z,99361.34
2024-02-15T08:37:27.313Z,99360.31
2024-02-15T08:39:53.980Z,99343.69
2024-02-15T08:42:22.120Z,99354.69
2024-02-15T08:44:48.972Z,99355.16
2024-02-15T08:47:15.686Z,99353.97
2024-02-15T08:49:42.407Z,99354.13
2024-02-15T08:52:09.188Z,99349.34
2024-02-15T08:54:36.919Z,99351.06
2024-02-15T08:57:03.907Z,99348.06
2024-02-15T08:59:32.022Z,99345.25
2024-02-15T09:01:58.705Z,99342.66
2024-02-15T09:04:25.370Z,99338.09
2024-02-15T09:06:52.340Z,99332.84
2024-02-15T09:09:19.171Z,99332.72
2024-02-15T09:11:45.990Z,99342.63
2024-02-15T09:14:12.757Z,99339.38
2024-02-15T09:16:40.798Z,99330.47
2024-02-15T09:19:07.639Z,99338.22
2024-02-15T09:21:34.431Z,99331.31
2024-02-15T09:24:01.231Z,99331.31
2024-02-15T09:26:27.906Z,99330.63
2024-02-15T09:28:54.691Z,99333.00
2024-02-15T09:31:21.394Z,99330.00
2024-02-15T09:33:49.614Z,99325.63
2024-02-15T09:36:16.501Z,99315.16
2024-02-15T09:38:43.324Z,99309.03
2024-02-15T09:41:10.206Z,99311.81
2024-02-15T09:43:37.168Z,99311.84
2024-02-15T09:46:04.360Z,99318.44
2024-02-15T09:48:33.007Z,99315.16
2024-02-15T09:51:02.638Z,99309.59
2024-02-15T09:53:29.790Z,99303.56
2024-02-15T09:55:57.185Z,99315.69
2024-02-15T09:58:23.910Z,99314.09
2024-02-15T10:00:50.905Z,99314.09
2024-02-15T10:03:20.243Z,99299.94
2024-02-15T10:05:49.488Z,99289.72
2024-02-15T10:08:17.619Z,99285.84
2024-02-15T10:10:44.325Z,99285.06
2024-02-15T10:13:14.505Z,99288.38
2024-02-15T10:15:41.386Z,99292.53
2024-02-15T10:18:09.625Z,99293.94
2024-02-15T10:20:36.744Z,99295.28
2024-02-15T10:23:13.442Z,99291.72
2024-02-15T10:25:42.120Z,99294.94
2024-02-15T10:28:10.440Z,99291.94
2024-02-15T10:30:38.409Z,99286.16
2024-02-15T10:33:06.445Z,99285.31
2024-02-15T10:35:33.394Z,99294.72
2024-02-15T10:38:07.408Z,99292.19
2024-02-15T10:40:34.139Z,99292.44
2024-02-15T10:43:04.332Z,99275.59
2024-02-15T10:45:32.590Z,99274.44
2024-02-15T10:47:59.919Z,99275.34
2024-02-15T10:50:26.967Z,99284.19
2024-02-15T10:52:56.356Z,99278.69
2024-02-15T10:55:36.730Z,99300.50
2024-02-15T10:58:06.721Z,99279.50
2024-02-15T11:00:34.808Z,99280.91
2024-02-15T11:03:03.218Z,99287.44
2024-02-15T11:05:34.166Z,99296.34
2024-02-15T11:08:01.480Z,99277.25
2024-02-15T11:10:29.069Z,99280.88
2024-02-15T11:12:55.819Z,99275.31
2024-02-15T11:15:44.779Z,99272.03
2024-02-15T11:18:11.859Z,99282.25
2024-02-15T11:20:48.221Z,99286.31
2024-02-15T11:23:35.535Z,99276.09
2024-02-15T11:26:04.878Z,99270.13
2024-02-15T11:28:37.650Z,99285.88
2024-02-15T11:31:08.302Z,99276.94
2024-02-15T11:33:36.014Z,99277.31
2024-02-15T11:36:07.531Z,99270.63
2024-02-15T11:38:34.633Z,99273.91
2024-02-15T11:41:02.795Z,99268.72
2024-02-15T11:43:59.982Z,99270.66
2024-02-15T11:46:28.606Z,99265.22
2024-02-15T11:48:55.530Z,99250.00
2024-02-15T11:51:29.804Z,99266.50
2024-02-15T11:54:03.787Z,99266.47
2024-02-15T11:56:30.631Z,99261.59
2024-02-15T11:59:05.111Z,99252.38
2024-02-15T12:01:33.884Z,99260.66
2024-02-15T12:04:06.810Z,99255.28
2024-02-15T12:06:34.685Z,99249.53
2024-02-15T12:09:01.708Z,99250.66
2024-02-15T12:11:28.467Z,99249.19
2024-02-15T12:13:55.174Z,99238.94
2024-02-15T12:16:21.863Z,99228.13
2024-02-15T12:18:50.428Z,99223.50
2024-02-15T12:21:20.843Z,99234.84
2024-02-15T12:23:47.779Z,99232.28
2024-02-15T12:26:14.639Z,99230.53
2024-02-15T12:28:45.549Z,99221.34
2024-02-15T12:31:13.296Z,99227.94
2024-02-15T12:33:40.136Z,99217.66
2024-02-15T12:36:09.402Z,99209.47
2024-02-15T12:38:36.775Z,99201.16
2024-02-15T12:41:03.685Z,99202.66
2024-02-15T12:43:30.351Z,99197.19
2024-02-15T12:45:57.229Z,99192.16
2024-02-15T12:48:24.245Z,99187.59
2024-02-15T12:50:51.088Z,99177.47
2024-02-15T12:53:23.430Z,99195.91
2024-02-15T12:55:54.344Z,99186.31
2024-02-15T12:58:21.023Z,99189.53
2024-02-15T13:00:47.798Z,99177.03
2024-02-15T13:03:14.528Z,99175.78
2024-02-15T13:05:41.888Z,99190.41
2024-02-15T13:08:09.098Z,99193.28
2024-02-15T13:10:37.971Z,99194.25
2024-02-15T13:13:04.875Z,99195.00
2024-02-15T13:15:31.800Z,99190.56
2024-02-15T13:17:58.749Z,99179.53
2024-02-15T13:20:25.702Z,99177.00
2024-02-15T13:22:52.409Z,99177.63
2024-02-15T13:25:19.078Z,99167.38
2024-02-15T13:27:47.156Z,99167.31
2024-02-15T13:30:14.392Z,99172.22
2024-02-15T13:32:41.639Z,99152.84
2024-02-15T13:35:09.793Z,99159.69
2024-02-15T13:37:36.482Z,99161.28
2024-02-15T13:40:03.306Z,99149.75
2024-02-15T13:42:30.021Z,99157.53
2024-02-15T13:44:58.164Z,99161.03
2024-02-15T13:47:24.878Z,99166.84
2024-02-15T13:49:51.781Z,99156.06
2024-02-15T13:52:18.492Z,99151.28
2024-02-15T13:54:45.180Z,99141.91
2024-02-15T13:57:12.065Z,99137.72
2024-02-15T13:59:39.172Z,99136.91
2024-02-15T14:02:07.237Z,99138.81
2024-02-15T14:04:33.952Z,99132.91
2024-02-15T14:07:00.701Z,99129.38
2024-02-15T14:09:28.607Z,99130.50
2024-02-15T14:11:55.314Z,99131.81
2024-02-15T14:14:22.029Z,99134.94
2024-02-15T14:16:48.732Z,99133.53
2024-02-15T14:19:16.869Z,99128.41
2024-02-15T14:21:43.520Z,99123.44
2024-02-15T14:24:10.241Z,99115.13
2024-02-15T14:26:37.021Z,99105.81
2024-02-15T14:29:03.697Z,99117.25
2024-02-15T14:31:30.384Z,99120.16
2024-02-15T14:33:57.310Z,99117.88
2024-02-15T14:36:25.458Z,99119.69
2024-02-15T14:38:52.329Z,99112.59
2024-02-15T14:41:32.333Z,99105.47
2024-02-15T14:44:00.244Z,99107.13
2024-02-15T14:46:26.954Z,99113.22
2024-02-15T14:48:53.855Z,99120.69
2024-02-15T14:51:20.839Z,99117.91
2024-02-15T14:53:49.365Z,99113.28
2024-02-15T14:56:16.011Z,99116.91
2024-02-15T14:58:42.673Z,99112.91
2024-02-15T15:01:10.796Z,99111.56
2024-02-15T15:03:38.116Z,99110.16
2024-02-15T15:06:05.781Z,99112.38
2024-02-15T15:08:32.744Z,99109.66
2024-02-15T15:11:01.063Z,99114.34
2024-02-15T15:13:27.773Z,99103.31
2024-02-15T15:15:54.638Z,99111.88
2024-02-15T15:18:21.449Z,99119.06
2024-02-15T15:20:48.333Z,99113.84
2024-02-15T15:23:15.055Z,99112.97
2024-02-15T15:25:41.945Z,99122.38
2024-02-15T15:28:10.153Z,99110.25
2024-02-15T15:30:37.080Z,99111.03
2024-02-15T15:33:04.472Z,99111.06
2024-02-15T15:35:34.040Z,99106.69
2024-02-15T15:38:01.454Z,99107.81
2024-02-15T15:40:28.142Z,99102.28
2024-02-15T15:42:54.826Z,99110.59
2024-02-15T15:45:23.028Z,99114.19
2024-02-15T15:47:49.849Z,99114.97
2024-02-15T15:50:16.591Z,99120.25
2024-02-15T15:52:43.523Z,99116.66
2024-02-15T15:55:10.347Z,99124.38
2024-02-15T15:57:37.051Z,99116.34
2024-02-15T16:00:04.668Z,99116.66
2024-02-15T16:02:32.723Z,99111.69
2024-02-15T16:05:01.965Z,99114.41
2024-02-15T16:07:29.212Z,99111.66
2024-02-15T16:09:55.920Z,99116.63
2024-02-15T16:12:22.721Z,99122.16
2024-02-15T16:14:50.403Z,99112.78
2024-02-15T16:17:17.368Z,99119.41
2024-02-15T16:19:45.428Z,99119.13
2024-02-15T16:22:12.266Z,99112.22
2024-02-15T16:24:38.966Z,99111.09
2024-02-15T16:27:05.787Z,99116.34
2024-02-15T16:29:32.522Z,99111.13
2024-02-15T16:31:59.326Z,99118.56
2024-02-15T16:34:26.341Z,99118.00
2024-02-15T16:36:54.645Z,99118.84
2024-02-15T16:39:21.557Z,99120.75
2024-02-15T16:41:48.479Z,99125.44
2024-02-15T16:44:15.361Z,99124.38
2024-02-15T16:46:42.942Z,99115.78
2024-02-15T16:49:10.571Z,99117.47
2024-02-15T16:51:37.425Z,99107.25
2024-02-15T16:54:05.680Z,99103.09
2024-02-15T16:56:32.372Z,99102.56
2024-02-15T16:58:59.151Z,99108.59
2024-02-15T17:01:26.392Z,99114.13
2024-02-15T17:03:53.262Z,99109.47
2024-02-15T17:06:20.514Z,99124.63
2024-02-15T17:08:47.678Z,99126.84
2024-02-15T17:11:15.983Z,99125.75
2024-02-15T17:13:42.677Z,99121.88
2024-02-15T17:16:09.312Z,99121.06
2024-02-15T17:18:36.080Z,99126.28
2024-02-15T17:21:02.845Z,99130.16
2024-02-15T17:23:29.553Z,99137.03
2024-02-15T17:25:56.227Z,99142.31
2024-02-15T17:28:24.410Z,99147.53
2024-02-15T17:30:51.255Z,99146.41
2024-02-15T17:33:18.023Z,99146.69
2024-02-15T17:35:45.103Z,99141.19
2024-02-15T17:38:11.768Z,99147.81
2024-02-15T17:40:39.027Z,99151.66
2024-02-15T17:43:05.916Z,99136.75
2024-02-15T17:45:34.093Z,99146.97
2024-02-15T17:48:00.903Z,99143.09
2024-02-15T17:50:27.611Z,99138.72
2024-02-15T17:52:54.512Z,99145.03
2024-02-15T17:55:21.695Z,99138.97
2024-02-15T17:57:48.647Z,99152.78
2024-02-15T18:00:16.364Z,99153.06
2024-02-15T18:02:44.755Z,99150.28
2024-02-15T18:05:11.799Z,99150.59
2024-02-15T18:07:39.165Z,99162.16
2024-02-15T18:10:07.353Z,99162.72
2024-02-15T18:12:34.185Z,99164.38
2024-02-15T18:15:01.664Z,99172.38
2024-02-15T18:17:28.413Z,99182.31
2024-02-15T18:19:56.497Z,99185.91
2024-02-15T18:22:23.173Z,99180.38
2024-02-15T18:24:49.873Z,99190.34
2024-02-15T18:27:16.627Z,99191.72
2024-02-15T18:29:43.337Z,99194.75
2024-02-15T18:32:10.032Z,99189.22
2024-02-15T18:34:37.398Z,99194.75
2024-02-15T18:37:05.558Z,99193.91
2024-02-15T18:39:32.377Z,99192.53
2024-02-15T18:41:59.207Z,99192.25
2024-02-15T18:44:25.868Z,99193.03
2024-02-15T18:46:52.552Z,99190.03
2024-02-15T18:49:26.889Z,99185.84
2024-02-15T18:51:59.643Z,99175.41
2024-02-15T18:54:27.878Z,99183.09
2024-02-15T18:56:54.630Z,99173.13
2024-02-15T18:59:21.359Z,99178.09
2024-02-15T19:01:48.203Z,99177.84
2024-02-15T19:04:14.954Z,99180.06
2024-02-15T19:06:42.220Z,99181.13
2024-02-15T19:09:10.178Z,99178.66
2024-02-15T19:11:38.266Z,99185.25
2024-02-15T19:14:04.987Z,99183.06
2024-02-15T19:16:31.720Z,99185.56
2024-02-15T19:18:58.453Z,99182.47
2024-02-15T19:21:25.186Z,99179.22
2024-02-15T19:23:51.906Z,99181.13
2024-02-15T19:26:18.568Z,99188.59
2024-02-15T19:28:46.730Z,99185.81
2024-02-15T19:31:13.566Z,99189.69
2024-02-15T19:33:47.806Z,99180.56
2024-02-15T19:36:19.462Z,99184.69
2024-02-15T19:38:46.164Z,99193.53
2024-02-15T19:41:16.050Z,99195.69
2024-02-15T19:43:42.735Z,99196.81
2024-02-15T19:46:10.783Z,99198.22
2024-02-15T19:48:37.577Z,99207.31
2024-02-15T19:51:05.559Z,99208.41
2024-02-15T19:53:32.380Z,99213.94
2024-02-15T19:55:59.069Z,99207.84
2024-02-15T19:58:25.757Z,99215.03
2024-02-15T20:00:52.639Z,99220.97
2024-02-15T20:03:20.886Z,99228.44
2024-02-15T20:05:47.838Z,99228.16
2024-02-15T20:08:14.803Z,99226.81
2024-02-15T20:10:41.750Z,99226.81
2024-02-15T20:13:08.427Z,99225.63
2024-02-15T20:15:35.347Z,99229.72
2024-02-15T20:18:02.254Z,99223.72
2024-02-15T20:20:30.579Z,99230.25
2024-02-15T20:22:57.475Z,99239.78
2024-02-15T20:25:24.224Z,99240.03
2024-02-15T20:27:51.188Z,99233.94
2024-02-15T20:30:18.467Z,99233.16
2024-02-15T20:32:45.567Z,99234.50
2024-02-15T20:35:12.674Z,99237.84
2024-02-15T20:37:41.330Z,99239.53
2024-02-15T20:40:09.402Z,99232.06
2024-02-15T20:42:36.223Z,99236.50
2024-02-15T20:45:03.465Z,99232.06
2024-02-15T20:47:30.408Z,99230.91
2024-02-15T20:49:57.386Z,99232.06
2024-02-15T20:52:24.308Z,99238.94
2024-02-15T20:54:52.580Z,99235.34
2024-02-15T20:57:19.315Z,99235.88
2024-02-15T20:59:46.120Z,99246.59
2024-02-15T21:02:12.860Z,99246.59
2024-02-15T21:04:39.820Z,99249.06
2024-02-15T21:07:06.834Z,99242.19
2024-02-15T21:09:33.722Z,99236.63
2024-02-15T21:12:01.939Z,99241.84
2024-02-15T21:14:28.710Z,99246.53
2024-02-15T21:16:55.424Z,99255.66
2024-02-15T21:19:22.122Z,99259.41
2024-02-15T21:21:48.856Z,99267.09
2024-02-15T21:24:15.633Z,99277.25
2024-02-15T21:26:42.951Z,99281.38
2024-02-15T21:29:11.134Z,99281.72
2024-02-15T21:31:37.901Z,99285.78
2024-02-15T21:34:04.860Z,99280.00
2024-02-15T21:36:31.787Z,99287.97
2024-02-15T21:38:58.552Z,99282.19
2024-02-15T21:41:25.287Z,99281.16
2024-02-15T21:43:52.106Z,99276.00
2024-02-15T21:46:20.984Z,99285.53
2024-02-15T21:48:47.946Z,99281.63
2024-02-15T21:51:14.822Z,99280.28
2024-02-15T21:53:41.548Z,99280.78
2024-02-15T21:56:08.244Z,99272.75
2024-02-15T21:58:34.987Z,99274.41
2024-02-15T22:01:01.850Z,99272.38
2024-02-15T22:03:29.983Z,99283.81
2024-02-15T22:05:56.849Z,99292.91
2024-02-15T22:08:23.634Z,99291.75
2024-02-15T22:10:50.619Z,99291.03
2024-02-15T22:13:17.405Z,99290.56
2024-02-15T22:15:44.147Z,99299.91
2024-02-15T22:18:11.130Z,99305.94
2024-02-15T22:20:39.350Z,99303.66
2024-02-15T22:23:06.195Z,99301.84
2024-02-15T22:25:32.874Z,99302.00
2024-02-15T22:27:59.620Z,99296.84
2024-02-15T22:30:26.511Z,99304.47
2024-02-15T22:32:53.591Z,99315.69
2024-02-15T22:35:20.381Z,99315.38
2024-02-15T22:37:48.654Z,99316.13
2024-02-15T22:40:15.478Z,99306.47
2024-02-15T22:42:42.182Z,99310.00
2024-02-15T22:45:09.674Z,99312.19
2024-02-15T22:47:36.732Z,99315.25
2024-02-15T22:50:03.725Z,99309.19
2024-02-15T22:52:30.412Z,99324.78
2024-02-15T22:54:58.494Z,99321.91
2024-02-15T22:57:25.371Z,99320.84
2024-02-15T22:59:52.125Z,99333.81
2024-02-15T23:02:18.908Z,99338.50
2024-02-15T23:04:45.690Z,99335.31
2024-02-15T23:07:12.628Z,99331.16
2024-02-15T23:09:39.710Z,99338.31
2024-02-15T23:12:08.408Z,99342.69
2024-02-15T23:14:35.279Z,99345.75
2024-02-15T23:17:01.984Z,99348.69
2024-02-15T23:19:28.825Z,99347.03
2024-02-15T23:21:55.550Z,99342.69
2024-02-15T23:24:22.316Z,99334.25
2024-02-15T23:26:49.156Z,99333.91
2024-02-15T23:29:17.324Z,99337.25
2024-02-15T23:31:44.056Z,99347.66
2024-02-15T23:34:10.892Z,99350.88
2024-02-15T23:36:37.796Z,99359.13
2024-02-15T23:39:04.707Z,99359.63
2024-02-15T23:41:31.448Z,99363.59
2024-02-15T23:43:58.133Z,99372.34
2024-02-15T23:46:26.261Z,99378.63
2024-02-15T23:48:53.248Z,99380.69
2024-02-15T23:51:20.327Z,99383.09
2024-02-15T23:53:47.072Z,99393.13
2024-02-15T23:56:13.751Z,99391.22
2024-02-15T23:58:40.430Z,99387.34
